Time,TemperatureF,DewpointF,PressureIn,WindDirection,WindDirectionDegrees,WindSpeedMPH,WindSpeedGustMPH,Humidity,HourlyPrecipIn,Conditions,Clouds,dailyrainin,SoftwareType,DateUTC
2015-03-31 00:02:00,65.2,62.8,30.15,SW,223,0.0,0.0,92,0.00,,---,0.00,VWS V13.01,2015-03-31 05:02:00,
2015-03-31 00:07:00,65.2,62.8,30.15,SW,223,0.0,0.0,92,0.00,,---,0.00,VWS V13.01,2015-03-31 05:07:00,
2015-03-31 00:12:00,65.1,62.7,30.15,SW,223,0.0,0.0,92,0.00,,---,0.00,VWS V13.01,2015-03-31 05:12:00,
2015-03-31 00:17:00,65.1,62.7,30.15,SW,223,0.0,0.0,92,0.00,,---,0.00,VWS V13.01,2015-03-31 05:17:00,
2015-03-31 00:22:00,65.0,62.6,30.15,SW,223,0.0,0.0,92,0.00,,---,0.00,VWS V13.01,2015-03-31 05:22:00,
2015-03-31 00:27:00,65.0,62.6,30.14,SW,223,0.0,0.0,92,0.00,,---,0.00,VWS V13.01,2015-03-31 05:27:00,
2015-03-31 00:32:00,64.9,62.5,30.15,SW,223,0.0,0.0,92,0.00,,---,0.00,VWS V13.01,2015-03-31 05:32:00,
2015-03-31 00:37:00,64.9,62.5,30.14,SW,223,0.0,0.0,92,0.00,,---,0.00,VWS V13.01,2015-03-31 05:37:00,
2015-03-31 00:42:00,64.8,62.4,30.14,SW,223,0.0,0.0,92,0.00,,---,0.00,VWS V13.01,2015-03-31 05:42:00,
2015-03-31 00:47:00,64.6,62.2,30.14,SW,223,0.0,0.0,92,0.00,,---,0.00,VWS V13.01,2015-03-31 05:47:00,
2015-03-31 00:52:00,64.4,62.0,30.14,SW,223,0.0,0.0,92,0.00,,---,0.00,VWS V13.01,2015-03-31 05:52:00,
2015-03-31 00:57:00,64.2,61.8,30.14,SW,223,0.0,0.0,92,0.00,,---,0.00,VWS V13.01,2015-03-31 05:57:00,
2015-03-31 01:02:00,64.0,61.6,30.14,SW,223,0.0,0.0,92,0.00,,---,0.00,VWS V13.01,2015-03-31 06:02:00,
2015-03-31 01:07:00,63.8,61.4,30.14,SW,223,0.0,0.0,92,0.00,,---,0.00,VWS V13.01,2015-03-31 06:07:00,
2015-03-31 01:12:00,63.7,61.3,30.13,SW,223,0.0,0.0,92,0.00,,---,0.00,VWS V13.01,2015-03-31 06:12:00,
2015-03-31 01:17:00,63.5,61.1,30.13,SW,223,0.0,0.0,92,0.00,,---,0.00,VWS V13.01,2015-03-31 06:17:00,
2015-03-31 01:22:00,63.4,61.0,30.13,SW,223,0.0,0.0,92,0.00,,---,0.00,VWS V13.01,2015-03-31 06:22:00,
2015-03-31 01:27:00,63.2,60.8,30.13,SW,223,0.0,0.0,92,0.00,,---,0.00,VWS V13.01,2015-03-31 06:27:00,
2015-03-31 01:32:00,63.1,60.7,30.12,SW,223,0.0,0.0,92,0.00,,---,0.00,VWS V13.01,2015-03-31 06:32:00,
2015-03-31 01:37:00,62.9,60.5,30.12,SW,223,0.0,0.0,92,0.00,,---,0.00,VWS V13.01,2015-03-31 06:37:00,
2015-03-31 01:42:00,62.7,60.0,30.12,SW,223,0.0,0.0,91,0.00,,---,0.00,VWS V13.01,2015-03-31 06:42:00,
2015-03-31 01:47:00,62.6,60.2,30.12,SW,223,0.0,0.0,92,0.00,,---,0.00,VWS V13.01,2015-03-31 06:47:00,
2015-03-31 01:52:00,62.5,60.2,30.12,SW,223,0.0,0.0,92,0.00,,---,0.00,VWS V13.01,2015-03-31 06:52:00,
2015-03-31 01:57:00,62.4,60.0,30.12,SW,223,0.0,0.0,92,0.00,,---,0.00,VWS V13.01,2015-03-31 06:57:00,
2015-03-31 02:02:00,62.3,60.0,30.11,SW,223,0.0,0.0,92,0.00,,---,0.00,VWS V13.01,2015-03-31 07:02:00,
2015-03-31 02:07:00,62.2,59.8,30.11,SW,223,0.0,0.0,92,0.00,,---,0.00,VWS V13.01,2015-03-31 07:07:00,
2015-03-31 02:12:00,62.1,59.8,30.11,SW,223,0.0,0.0,92,0.00,,---,0.00,VWS V13.01,2015-03-31 07:12:00,
2015-03-31 02:16:00,62.0,59.7,30.11,SW,223,0.0,0.0,92,0.00,,---,0.00,VWS V13.01,2015-03-31 07:16:00,
2015-03-31 02:21:00,61.9,59.5,30.10,SW,223,0.0,0.0,92,0.00,,---,0.00,VWS V13.01,2015-03-31 07:21:00,
2015-03-31 02:26:00,61.8,59.5,30.10,SW,223,0.0,0.0,92,0.00,,---,0.00,VWS V13.01,2015-03-31 07:26:00,
2015-03-31 02:31:00,61.8,59.5,30.10,SW,223,0.0,0.0,92,0.00,,---,0.00,VWS V13.01,2015-03-31 07:31:00,
2015-03-31 02:36:00,61.7,59.4,30.10,SW,223,0.0,0.0,92,0.00,,---,0.00,VWS V13.01,2015-03-31 07:36:00,
2015-03-31 02:41:00,61.6,59.3,30.10,SW,223,0.0,0.0,92,0.00,,---,0.00,VWS V13.01,2015-03-31 07:41:00,
2015-03-31 02:46:00,61.5,59.2,30.10,SW,223,0.0,0.0,92,0.00,,---,0.00,VWS V13.01,2015-03-31 07:46:00,
2015-03-31 02:51:00,61.4,59.1,30.10,SW,223,0.0,0.0,92,0.00,,---,0.00,VWS V13.01,2015-03-31 07:51:00,
2015-03-31 02:56:00,61.3,59.0,30.09,SW,223,0.0,0.0,92,0.00,,---,0.00,VWS V13.01,2015-03-31 07:56:00,
2015-03-31 03:01:00,61.2,58.9,30.10,SW,223,0.0,0.0,92,0.00,,---,0.00,VWS V13.01,2015-03-31 08:01:00,
2015-03-31 03:06:00,61.0,58.7,30.09,SW,223,0.0,0.0,92,0.00,,---,0.00,VWS V13.01,2015-03-31 08:06:00,
2015-03-31 03:11:00,60.9,58.6,30.09,SW,223,0.0,0.0,92,0.00,,---,0.00,VWS V13.01,2015-03-31 08:11:00,
2015-03-31 03:16:00,60.9,58.6,30.09,SW,223,0.0,0.0,92,0.00,,---,0.00,VWS V13.01,2015-03-31 08:16:00,
2015-03-31 03:21:00,60.9,58.6,30.09,SW,223,0.0,0.0,92,0.00,,---,0.00,VWS V13.01,2015-03-31 08:21:00,
2015-03-31 03:26:00,61.5,59.5,30.09,SW,223,0.0,0.0,93,0.00,,---,0.00,VWS V13.01,2015-03-31 08:26:00,
2015-03-31 03:31:00,62.0,60.3,30.09,SW,223,0.0,0.0,94,0.00,,---,0.00,VWS V13.01,2015-03-31 08:31:00,
2015-03-31 03:36:00,62.3,60.2,30.09,SW,223,0.0,0.0,93,0.00,,---,0.00,VWS V13.01,2015-03-31 08:36:00,
2015-03-31 03:41:00,62.5,60.5,30.09,SW,223,0.0,0.0,93,0.00,,---,0.00,VWS V13.01,2015-03-31 08:41:00,
2015-03-31 03:46:00,62.7,61.0,30.09,SW,223,0.0,0.0,94,0.00,,---,0.00,VWS V13.01,2015-03-31 08:46:00,
2015-03-31 03:51:00,62.9,61.2,30.09,SW,223,0.0,0.0,94,0.00,,---,0.00,VWS V13.01,2015-03-31 08:51:00,
2015-03-31 03:56:00,63.0,61.2,30.09,SW,223,0.0,0.0,94,0.00,,---,0.00,VWS V13.01,2015-03-31 08:56:00,
2015-03-31 04:01:00,63.0,61.2,30.09,SW,223,0.0,0.0,94,0.00,,---,0.00,VWS V13.01,2015-03-31 09:01:00,
2015-03-31 04:06:00,63.0,61.2,30.09,SW,223,0.0,0.0,94,0.00,,---,0.00,VWS V13.01,2015-03-31 09:06:00,
2015-03-31 04:11:00,62.9,61.2,30.08,SW,223,0.0,0.0,94,0.00,,---,0.00,VWS V13.01,2015-03-31 09:11:00,
2015-03-31 04:16:00,62.8,61.0,30.08,SW,223,0.0,0.0,94,0.00,,---,0.00,VWS V13.01,2015-03-31 09:16:00,
2015-03-31 04:21:00,62.7,61.0,30.08,SW,223,0.0,0.0,94,0.00,,---,0.00,VWS V13.01,2015-03-31 09:21:00,
2015-03-31 04:26:00,62.7,61.0,30.08,SW,223,0.0,0.0,94,0.00,,---,0.00,VWS V13.01,2015-03-31 09:26:00,
2015-03-31 04:31:00,62.7,61.0,30.08,SW,223,0.0,0.0,94,0.00,,---,0.00,VWS V13.01,2015-03-31 09:31:00,
2015-03-31 04:36:00,62.7,61.0,30.08,SW,223,0.0,0.0,94,0.00,,---,0.00,VWS V13.01,2015-03-31 09:36:00,
2015-03-31 04:41:00,62.7,61.0,30.08,SW,223,0.0,0.0,94,0.00,,---,0.00,VWS V13.01,2015-03-31 09:41:00,
2015-03-31 04:46:00,62.6,60.8,30.08,SW,223,0.0,1.0,94,0.00,,---,0.00,VWS V13.01,2015-03-31 09:46:00,
2015-03-31 04:51:00,62.6,60.8,30.08,SW,223,0.0,0.0,94,0.00,,---,0.00,VWS V13.01,2015-03-31 09:51:00,
2015-03-31 04:56:00,62.5,60.8,30.08,SW,223,0.0,0.0,94,0.00,,---,0.00,VWS V13.01,2015-03-31 09:56:00,
2015-03-31 05:01:00,62.5,60.8,30.08,SW,223,0.0,0.0,94,0.00,,---,0.00,VWS V13.01,2015-03-31 10:01:00,
2015-03-31 05:06:00,62.5,60.8,30.08,SW,223,0.0,0.0,94,0.00,,---,0.00,VWS V13.01,2015-03-31 10:06:00,
2015-03-31 05:11:00,62.4,60.7,30.08,SW,223,0.0,0.0,94,0.00,,---,0.00,VWS V13.01,2015-03-31 10:11:00,
2015-03-31 05:16:00,62.4,61.0,30.09,SW,223,0.0,0.0,95,0.00,,---,0.00,VWS V13.01,2015-03-31 10:16:00,
2015-03-31 05:21:00,62.4,61.0,30.09,SW,223,0.0,1.0,95,0.00,,---,0.00,VWS V13.01,2015-03-31 10:21:00,
2015-03-31 05:26:00,62.4,61.0,30.09,SW,223,0.0,1.0,95,0.00,,---,0.00,VWS V13.01,2015-03-31 10:26:00,
2015-03-31 05:31:00,62.5,61.0,30.09,SW,223,0.0,0.0,95,0.00,,---,0.00,VWS V13.01,2015-03-31 10:31:00,
2015-03-31 05:36:00,62.5,61.0,30.09,SW,223,0.0,0.0,95,0.00,,---,0.00,VWS V13.01,2015-03-31 10:36:00,
2015-03-31 05:41:00,62.4,61.0,30.09,SW,224,0.0,0.0,95,0.00,,---,0.00,VWS V13.01,2015-03-31 10:41:00,
2015-03-31 05:46:00,62.4,61.0,30.09,SW,224,0.0,0.0,95,0.00,,---,0.00,VWS V13.01,2015-03-31 10:46:00,
2015-03-31 05:51:00,62.4,61.0,30.09,SW,224,0.0,0.0,95,0.00,,---,0.00,VWS V13.01,2015-03-31 10:51:00,
2015-03-31 05:56:00,62.3,60.8,30.09,SW,224,0.0,0.0,95,0.00,,---,0.00,VWS V13.01,2015-03-31 10:56:00,
2015-03-31 06:01:00,62.3,60.8,30.10,SW,224,0.0,0.0,95,0.00,,---,0.00,VWS V13.01,2015-03-31 11:01:00,
2015-03-31 06:06:00,62.3,60.8,30.09,SW,229,0.0,3.0,95,0.00,,---,0.00,VWS V13.01,2015-03-31 11:06:00,
2015-03-31 06:11:00,62.4,61.0,30.10,SW,229,0.0,0.0,95,0.00,,---,0.00,VWS V13.01,2015-03-31 11:11:00,
2015-03-31 06:16:00,62.4,61.0,30.10,SW,229,0.0,0.0,95,0.00,,---,0.00,VWS V13.01,2015-03-31 11:16:00,
2015-03-31 06:21:00,62.4,61.0,30.10,SW,228,0.0,0.0,95,0.00,,---,0.00,VWS V13.01,2015-03-31 11:21:00,
2015-03-31 06:26:00,62.4,61.0,30.10,SW,221,0.0,0.0,95,0.00,,---,0.00,VWS V13.01,2015-03-31 11:26:00,
2015-03-31 06:31:00,62.4,61.0,30.10,SW,221,0.0,0.0,95,0.00,,---,0.00,VWS V13.01,2015-03-31 11:31:00,
2015-03-31 06:36:00,62.4,61.0,30.10,SW,221,0.0,0.0,95,0.00,,---,0.00,VWS V13.01,2015-03-31 11:36:00,
2015-03-31 06:41:00,62.5,61.0,30.10,SW,221,0.0,0.0,95,0.00,,---,0.00,VWS V13.01,2015-03-31 11:41:00,
2015-03-31 06:46:00,62.5,61.0,30.11,SW,221,0.0,0.0,95,0.00,,---,0.00,VWS V13.01,2015-03-31 11:46:00,
2015-03-31 06:51:00,62.5,61.0,30.11,SW,221,0.0,0.0,95,0.00,,---,0.00,VWS V13.01,2015-03-31 11:51:00,
2015-03-31 06:56:00,62.5,61.0,30.11,SW,221,0.0,0.0,95,0.00,,---,0.00,VWS V13.01,2015-03-31 11:56:00,
2015-03-31 07:01:00,62.5,61.0,30.11,SW,221,0.0,0.0,95,0.00,,---,0.00,VWS V13.01,2015-03-31 12:01:00,
2015-03-31 07:06:00,62.5,61.0,30.11,SW,221,0.0,0.0,95,0.00,,---,0.00,VWS V13.01,2015-03-31 12:06:00,
2015-03-31 07:11:00,62.5,61.0,30.11,SW,221,0.0,0.0,95,0.00,,---,0.00,VWS V13.01,2015-03-31 12:11:00,
2015-03-31 07:16:00,62.6,61.2,30.11,SW,221,0.0,0.0,95,0.00,,---,0.00,VWS V13.01,2015-03-31 12:16:00,
2015-03-31 07:21:00,62.7,61.2,30.11,SW,221,0.0,0.0,95,0.00,,---,0.00,VWS V13.01,2015-03-31 12:21:00,
2015-03-31 07:26:00,62.9,61.8,30.12,SW,221,0.0,0.0,96,0.00,,---,0.00,VWS V13.01,2015-03-31 12:26:00,
2015-03-31 07:31:00,63.1,61.9,30.12,SW,221,0.0,0.0,96,0.00,,---,0.00,VWS V13.01,2015-03-31 12:31:00,
2015-03-31 07:36:00,63.2,62.0,30.12,SW,222,0.0,0.0,96,0.00,,---,0.00,VWS V13.01,2015-03-31 12:36:00,
2015-03-31 07:41:00,63.4,62.2,30.12,SW,222,0.0,0.0,96,0.00,,---,0.00,VWS V13.01,2015-03-31 12:41:00,
2015-03-31 07:46:00,63.6,62.4,30.12,SW,235,0.0,2.0,96,0.00,,---,0.00,VWS V13.01,2015-03-31 12:46:00,
2015-03-31 07:51:00,63.8,62.6,30.13,SW,235,0.0,0.0,96,0.00,,---,0.00,VWS V13.01,2015-03-31 12:51:00,
2015-03-31 07:56:00,64.0,62.8,30.13,West,259,0.0,2.0,96,0.00,,---,0.00,VWS V13.01,2015-03-31 12:56:00,
2015-03-31 08:01:00,64.2,63.0,30.13,West,259,0.0,0.0,96,0.00,,---,0.00,VWS V13.01,2015-03-31 13:01:00,
2015-03-31 08:06:00,64.4,63.2,30.13,West,259,0.0,0.0,96,0.00,,---,0.00,VWS V13.01,2015-03-31 13:06:00,
2015-03-31 08:11:00,64.6,63.4,30.13,West,259,0.0,0.0,96,0.00,,---,0.00,VWS V13.01,2015-03-31 13:11:00,
2015-03-31 08:16:00,64.9,63.7,30.13,West,259,0.0,0.0,96,0.00,,---,0.00,VWS V13.01,2015-03-31 13:16:00,